sensor_id;sensor_type;location;lat;lon;timestamp;pressure;altitude;pressure_sealevel;temperature;humidity
81319;BME280;70784;48.420;14.830;2023-07-31T00:01:15;98079.88;;;25.16;51.05
81319;BME280;70784;48.420;14.830;2023-07-31T00:03:59;98082.78;;;25.14;50.56
81319;BME280;70784;48.420;14.830;2023-07-31T00:06:43;98081.97;;;25.14;50.21
81319;BME280;70784;48.420;14.830;2023-07-31T00:09:28;98088.34;;;25.13;50.19
81319;BME280;70784;48.420;14.830;2023-07-31T00:12:12;98097.38;;;25.12;50.10
81319;BME280;70784;48.420;14.830;2023-07-31T00:14:56;98088.59;;;25.11;50.63
81319;BME280;70784;48.420;14.830;2023-07-31T00:17:41;98089.66;;;25.10;50.08
81319;BME280;70784;48.420;14.830;2023-07-31T00:20:25;98093.38;;;25.09;50.23
81319;BME280;70784;48.420;14.830;2023-07-31T00:23:10;98098.69;;;25.09;49.52
81319;BME280;70784;48.420;14.830;2023-07-31T00:25:54;98105.88;;;25.09;50.14
81319;BME280;70784;48.420;14.830;2023-07-31T00:28:39;98102.66;;;25.07;50.40
81319;BME280;70784;48.420;14.830;2023-07-31T00:31:23;98098.94;;;25.08;50.21
81319;BME280;70784;48.420;14.830;2023-07-31T00:34:08;98097.56;;;25.05;50.27
81319;BME280;70784;48.420;14.830;2023-07-31T00:36:52;98104.75;;;25.05;49.26
81319;BME280;70784;48.420;14.830;2023-07-31T00:39:37;98102.88;;;25.05;49.32
81319;BME280;70784;48.420;14.830;2023-07-31T00:42:21;98111.09;;;25.04;49.33
81319;BME280;70784;48.420;14.830;2023-07-31T00:45:06;98103.13;;;25.04;49.30
81319;BME280;70784;48.420;14.830;2023-07-31T00:47:51;98106.06;;;25.02;49.29
81319;BME280;70784;48.420;14.830;2023-07-31T00:50:35;98100.97;;;25.01;49.25
81319;BME280;70784;48.420;14.830;2023-07-31T00:53:21;98106.31;;;25.01;49.39
81319;BME280;70784;48.420;14.830;2023-07-31T00:56:05;98109.19;;;24.99;48.25
81319;BME280;70784;48.420;14.830;2023-07-31T00:58:50;98107.34;;;25.00;49.31
81319;BME280;70784;48.420;14.830;2023-07-31T01:01:35;98112.91;;;24.98;49.48
81319;BME280;70784;48.420;14.830;2023-07-31T01:04:20;98113.72;;;24.99;49.31
81319;BME280;70784;48.420;14.830;2023-07-31T01:07:17;98118.47;;;24.97;48.85
81319;BME280;70784;48.420;14.830;2023-07-31T01:12:56;98113.16;;;24.97;48.63
81319;BME280;70784;48.420;14.830;2023-07-31T01:15:40;98111.53;;;24.95;49.08
81319;BME280;70784;48.420;14.830;2023-07-31T01:18:25;98119.50;;;24.95;49.17
81319;BME280;70784;48.420;14.830;2023-07-31T03:09:59;98080.44;;;14.45;78.09
81319;BME280;70784;48.420;14.830;2023-07-31T03:12:49;98081.84;;;13.26;85.02
81319;BME280;70784;48.420;14.830;2023-07-31T03:15:36;98073.16;;;12.95;87.13
81319;BME280;70784;48.420;14.830;2023-07-31T03:18:21;98072.03;;;12.89;87.06
81319;BME280;70784;48.420;14.830;2023-07-31T03:21:09;98068.34;;;12.76;88.76
81319;BME280;70784;48.420;14.830;2023-07-31T03:23:54;98075.13;;;12.93;86.91
81319;BME280;70784;48.420;14.830;2023-07-31T03:26:39;98081.47;;;12.90;86.95
81319;BME280;70784;48.420;14.830;2023-07-31T03:29:26;98079.84;;;12.89;87.91
81319;BME280;70784;48.420;14.830;2023-07-31T03:32:12;98087.69;;;12.89;87.07
81319;BME280;70784;48.420;14.830;2023-07-31T03:35:00;98094.53;;;12.90;86.96
81319;BME280;70784;48.420;14.830;2023-07-31T03:37:48;98091.25;;;12.97;86.83
81319;BME280;70784;48.420;14.830;2023-07-31T03:40:36;98097.09;;;12.99;87.28
81319;BME280;70784;48.420;14.830;2023-07-31T03:43:21;98091.22;;;13.05;87.65
81319;BME280;70784;48.420;14.830;2023-07-31T03:46:06;98092.53;;;13.01;88.15
81319;BME280;70784;48.420;14.830;2023-07-31T03:48:52;98096.69;;;12.87;89.47
81319;BME280;70784;48.420;14.830;2023-07-31T03:51:39;98085.47;;;12.78;90.56
81319;BME280;70784;48.420;14.830;2023-07-31T03:54:24;98087.75;;;12.73;90.88
81319;BME280;70784;48.420;14.830;2023-07-31T03:57:13;98092.94;;;12.81;90.42
81319;BME280;70784;48.420;14.830;2023-07-31T04:00:05;98092.09;;;12.89;89.75
81319;BME280;70784;48.420;14.830;2023-07-31T04:02:54;98088.69;;;13.27;87.51
81319;BME280;70784;48.420;14.830;2023-07-31T04:05:39;98084.63;;;13.48;84.86
81319;BME280;70784;48.420;14.830;2023-07-31T04:08:24;98088.50;;;13.60;84.18
81319;BME280;70784;48.420;14.830;2023-07-31T04:11:12;98080.94;;;13.42;84.82
81319;BME280;70784;48.420;14.830;2023-07-31T04:13:59;98082.72;;;13.11;87.69
81319;BME280;70784;48.420;14.830;2023-07-31T04:16:45;98080.22;;;12.86;88.97
81319;BME280;70784;48.420;14.830;2023-07-31T04:19:32;98081.47;;;12.90;89.39
81319;BME280;70784;48.420;14.830;2023-07-31T04:22:16;98086.81;;;13.13;87.81
81319;BME280;70784;48.420;14.830;2023-07-31T04:25:04;98085.66;;;13.70;85.89
81319;BME280;70784;48.420;14.830;2023-07-31T04:27:50;98085.28;;;13.95;83.59
81319;BME280;70784;48.420;14.830;2023-07-31T04:30:35;98082.44;;;15.37;77.14
81319;BME280;70784;48.420;14.830;2023-07-31T04:33:21;98078.97;;;15.01;77.10
81319;BME280;70784;48.420;14.830;2023-07-31T04:36:06;98077.00;;;14.44;80.23
81319;BME280;70784;48.420;14.830;2023-07-31T04:38:56;98086.06;;;14.33;80.58
81319;BME280;70784;48.420;14.830;2023-07-31T04:41:42;98087.13;;;14.24;81.92
81319;BME280;70784;48.420;14.830;2023-07-31T04:44:30;98085.84;;;14.05;82.46
81319;BME280;70784;48.420;14.830;2023-07-31T04:47:18;98078.19;;;14.04;82.11
81319;BME280;70784;48.420;14.830;2023-07-31T04:50:03;98082.63;;;14.18;81.45
81319;BME280;70784;48.420;14.830;2023-07-31T04:52:51;98085.66;;;14.07;82.58
81319;BME280;70784;48.420;14.830;2023-07-31T04:55:37;98083.81;;;13.93;82.77
81319;BME280;70784;48.420;14.830;2023-07-31T04:58:22;98087.13;;;14.47;81.29
81319;BME280;70784;48.420;14.830;2023-07-31T05:01:07;98092.72;;;14.44;81.25
81319;BME280;70784;48.420;14.830;2023-07-31T05:03:57;98094.06;;;16.13;75.70
81319;BME280;70784;48.420;14.830;2023-07-31T05:06:42;98096.09;;;17.62;67.95
81319;BME280;70784;48.420;14.830;2023-07-31T05:09:29;98093.09;;;18.38;67.15
81319;BME280;70784;48.420;14.830;2023-07-31T05:12:15;98091.16;;;18.98;64.02
81319;BME280;70784;48.420;14.830;2023-07-31T05:15:00;98094.03;;;19.34;62.72
81319;BME280;70784;48.420;14.830;2023-07-31T05:17:46;98084.78;;;20.44;59.23
81319;BME280;70784;48.420;14.830;2023-07-31T05:20:33;98085.19;;;21.39;56.33
81319;BME280;70784;48.420;14.830;2023-07-31T05:23:21;98080.34;;;21.77;56.64
81319;BME280;70784;48.420;14.830;2023-07-31T05:26:06;98090.16;;;21.47;57.43
81319;BME280;70784;48.420;14.830;2023-07-31T05:28:54;98083.03;;;21.89;55.12
81319;BME280;70784;48.420;14.830;2023-07-31T05:31:42;98080.81;;;21.74;57.20
81319;BME280;70784;48.420;14.830;2023-07-31T05:34:28;98077.25;;;21.80;53.26
81319;BME280;70784;48.420;14.830;2023-07-31T05:37:13;98074.03;;;22.31;53.25
81319;BME280;70784;48.420;14.830;2023-07-31T05:40:01;98080.13;;;21.79;54.19
81319;BME280;70784;48.420;14.830;2023-07-31T05:42:52;98070.00;;;22.17;53.34
81319;BME280;70784;48.420;14.830;2023-07-31T05:45:37;98074.97;;;22.25;53.47
81319;BME280;70784;48.420;14.830;2023-07-31T05:48:23;98076.66;;;22.43;50.85
81319;BME280;70784;48.420;14.830;2023-07-31T05:51:08;98071.59;;;22.18;54.04
81319;BME280;70784;48.420;14.830;2023-07-31T05:53:54;98077.63;;;21.95;53.58
81319;BME280;70784;48.420;14.830;2023-07-31T05:56:42;98082.13;;;23.12;49.53
81319;BME280;70784;48.420;14.830;2023-07-31T05:59:27;98075.00;;;23.40;47.86
81319;BME280;70784;48.420;14.830;2023-07-31T06:02:12;98079.53;;;22.88;47.57
81319;BME280;70784;48.420;14.830;2023-07-31T06:05:03;98080.44;;;24.57;44.63
81319;BME280;70784;48.420;14.830;2023-07-31T06:07:49;98085.13;;;23.15;47.70
81319;BME280;70784;48.420;14.830;2023-07-31T06:10:37;98087.38;;;23.35;49.57
81319;BME280;70784;48.420;14.830;2023-07-31T06:13:25;98086.63;;;23.11;46.57
81319;BME280;70784;48.420;14.830;2023-07-31T06:16:16;98085.38;;;23.42;46.80
81319;BME280;70784;48.420;14.830;2023-07-31T06:19:06;98074.63;;;24.10;43.67
81319;BME280;70784;48.420;14.830;2023-07-31T06:21:54;98072.75;;;23.77;46.44
81319;BME280;70784;48.420;14.830;2023-07-31T06:24:39;98071.72;;;23.22;46.71
81319;BME280;70784;48.420;14.830;2023-07-31T06:27:25;98067.88;;;24.03;44.03
81319;BME280;70784;48.420;14.830;2023-07-31T06:30:10;98070.53;;;25.35;43.88
81319;BME280;70784;48.420;14.830;2023-07-31T06:32:58;98068.91;;;25.12;42.67
81319;BME280;70784;48.420;14.830;2023-07-31T06:35:45;98071.91;;;24.39;44.08
81319;BME280;70784;48.420;14.830;2023-07-31T06:38:30;98064.34;;;25.08;42.39
81319;BME280;70784;48.420;14.830;2023-07-31T06:41:18;98070.22;;;25.58;42.57
81319;BME280;70784;48.420;14.830;2023-07-31T06:44:03;98072.00;;;25.75;40.84
81319;BME280;70784;48.420;14.830;2023-07-31T06:46:48;98068.81;;;26.41;39.83
81319;BME280;70784;48.420;14.830;2023-07-31T06:49:33;98073.31;;;26.04;40.93
81319;BME280;70784;48.420;14.830;2023-07-31T06:52:21;98077.22;;;25.91;41.75
81319;BME280;70784;48.420;14.830;2023-07-31T06:55:25;98062.25;;;25.85;41.62
81319;BME280;70784;48.420;14.830;2023-07-31T06:58:10;98075.47;;;27.53;39.28
81319;BME280;70784;48.420;14.830;2023-07-31T07:00:58;98063.34;;;25.36;42.41
81319;BME280;70784;48.420;14.830;2023-07-31T07:03:43;98063.78;;;24.29;44.96
81319;BME280;70784;48.420;14.830;2023-07-31T07:06:28;98060.06;;;26.98;39.65
81319;BME280;70784;48.420;14.830;2023-07-31T07:09:12;98060.53;;;26.85;39.11
81319;BME280;70784;48.420;14.830;2023-07-31T07:11:57;98060.81;;;27.97;36.90
81319;BME280;70784;48.420;14.830;2023-07-31T07:14:41;98059.53;;;25.80;40.94
81319;BME280;70784;48.420;14.830;2023-07-31T07:17:27;98047.91;;;24.72;45.33
81319;BME280;70784;48.420;14.830;2023-07-31T07:20:12;98062.03;;;25.92;41.72
81319;BME280;70784;48.420;14.830;2023-07-31T07:22:57;98050.53;;;25.11;42.53
81319;BME280;70784;48.420;14.830;2023-07-31T07:25:42;98052.84;;;24.64;45.17
81319;BME280;70784;48.420;14.830;2023-07-31T07:28:27;98052.63;;;24.27;43.06
81319;BME280;70784;48.420;14.830;2023-07-31T07:31:13;98048.41;;;24.14;44.37
81319;BME280;70784;48.420;14.830;2023-07-31T07:33:57;98051.75;;;27.98;39.04
81319;BME280;70784;48.420;14.830;2023-07-31T07:36:42;98052.94;;;25.88;41.74
81319;BME280;70784;48.420;14.830;2023-07-31T07:39:27;98046.88;;;24.18;44.51
81319;BME280;70784;48.420;14.830;2023-07-31T07:42:12;98048.81;;;24.39;43.17
81319;BME280;70784;48.420;14.830;2023-07-31T07:44:56;98055.78;;;23.62;45.50
81319;BME280;70784;48.420;14.830;2023-07-31T07:47:41;98059.22;;;23.05;51.03
81319;BME280;70784;48.420;14.830;2023-07-31T07:50:26;98054.53;;;23.24;48.10
81319;BME280;70784;48.420;14.830;2023-07-31T07:53:11;98057.88;;;22.80;49.47
81319;BME280;70784;48.420;14.830;2023-07-31T07:55:55;98054.56;;;22.49;51.04
81319;BME280;70784;48.420;14.830;2023-07-31T07:58:40;98045.81;;;22.25;52.28
81319;BME280;70784;48.420;14.830;2023-07-31T08:01:24;98043.41;;;22.01;53.91
81319;BME280;70784;48.420;14.830;2023-07-31T08:04:10;98041.78;;;22.00;53.75
81319;BME280;70784;48.420;14.830;2023-07-31T08:06:55;98041.88;;;22.28;52.17
81319;BME280;70784;48.420;14.830;2023-07-31T08:09:39;98036.72;;;22.21;51.91
81319;BME280;70784;48.420;14.830;2023-07-31T08:12:24;98047.94;;;21.93;52.15
81319;BME280;70784;48.420;14.830;2023-07-31T08:15:08;98036.19;;;21.89;53.58
81319;BME280;70784;48.420;14.830;2023-07-31T08:17:53;98045.81;;;22.49;52.42
81319;BME280;70784;48.420;14.830;2023-07-31T08:20:38;98035.41;;;21.89;50.79
81319;BME280;70784;48.420;14.830;2023-07-31T08:23:22;98037.06;;;22.13;50.73
81319;BME280;70784;48.420;14.830;2023-07-31T08:26:06;98037.06;;;22.48;50.17
81319;BME280;70784;48.420;14.830;2023-07-31T08:28:51;98037.03;;;22.83;51.18
81319;BME280;70784;48.420;14.830;2023-07-31T08:31:35;98034.88;;;22.22;50.93
81319;BME280;70784;48.420;14.830;2023-07-31T08:34:19;98029.69;;;22.15;50.28
81319;BME280;70784;48.420;14.830;2023-07-31T08:37:04;98034.75;;;22.40;53.70
81319;BME280;70784;48.420;14.830;2023-07-31T08:39:48;98031.53;;;22.38;51.11
81319;BME280;70784;48.420;14.830;2023-07-31T08:42:33;98022.38;;;21.87;51.85
81319;BME280;70784;48.420;14.830;2023-07-31T08:45:19;98027.50;;;22.01;53.65
81319;BME280;70784;48.420;14.830;2023-07-31T08:48:04;98021.84;;;22.20;53.64
81319;BME280;70784;48.420;14.830;2023-07-31T08:50:49;98020.75;;;21.86;52.14
81319;BME280;70784;48.420;14.830;2023-07-31T08:53:34;98021.03;;;22.55;50.88
81319;BME280;70784;48.420;14.830;2023-07-31T08:56:18;98017.16;;;23.71;52.19
81319;BME280;70784;48.420;14.830;2023-07-31T08:59:04;98010.75;;;23.67;45.61
81319;BME280;70784;48.420;14.830;2023-07-31T09:01:50;98017.88;;;22.93;47.49
81319;BME280;70784;48.420;14.830;2023-07-31T09:04:37;98002.28;;;23.53;47.75
81319;BME280;70784;48.420;14.830;2023-07-31T09:07:22;97998.81;;;22.96;48.61
81319;BME280;70784;48.420;14.830;2023-07-31T09:10:09;98000.00;;;22.25;50.43
81319;BME280;70784;48.420;14.830;2023-07-31T09:12:54;97995.19;;;21.57;54.27
81319;BME280;70784;48.420;14.830;2023-07-31T09:15:42;97989.13;;;21.80;52.50
81319;BME280;70784;48.420;14.830;2023-07-31T09:18:28;97989.00;;;21.86;52.08
81319;BME280;70784;48.420;14.830;2023-07-31T09:21:12;97998.16;;;22.14;52.33
81319;BME280;70784;48.420;14.830;2023-07-31T09:23:57;97998.13;;;22.49;51.04
81319;BME280;70784;48.420;14.830;2023-07-31T09:26:41;97990.28;;;22.94;50.45
81319;BME280;70784;48.420;14.830;2023-07-31T09:29:27;97987.38;;;22.67;51.50
81319;BME280;70784;48.420;14.830;2023-07-31T09:32:16;97980.50;;;23.85;48.54
81319;BME280;70784;48.420;14.830;2023-07-31T09:35:12;97985.72;;;23.96;50.00
81319;BME280;70784;48.420;14.830;2023-07-31T09:37:59;97983.28;;;23.95;47.64
81319;BME280;70784;48.420;14.830;2023-07-31T09:40:46;97979.69;;;23.67;48.59
81319;BME280;70784;48.420;14.830;2023-07-31T09:43:30;97972.38;;;24.68;46.61
81319;BME280;70784;48.420;14.830;2023-07-31T09:46:15;97966.66;;;24.38;46.19
81319;BME280;70784;48.420;14.830;2023-07-31T09:49:07;97959.69;;;24.53;44.50
81319;BME280;70784;48.420;14.830;2023-07-31T09:51:53;97965.91;;;24.86;49.33
81319;BME280;70784;48.420;14.830;2023-07-31T09:54:37;97960.34;;;24.87;43.46
81319;BME280;70784;48.420;14.830;2023-07-31T09:57:22;97961.88;;;24.18;45.67
81319;BME280;70784;48.420;14.830;2023-07-31T10:00:08;97956.81;;;24.16;45.51
81319;BME280;70784;48.420;14.830;2023-07-31T10:02:54;97957.84;;;24.76;43.56
81319;BME280;70784;48.420;14.830;2023-07-31T10:05:45;97952.72;;;25.18;44.61
81319;BME280;70784;48.420;14.830;2023-07-31T10:08:34;97950.91;;;24.97;43.20
81319;BME280;70784;48.420;14.830;2023-07-31T10:11:22;97949.41;;;25.32;41.62
81319;BME280;70784;48.420;14.830;2023-07-31T10:14:08;97937.25;;;25.47;41.81
81319;BME280;70784;48.420;14.830;2023-07-31T10:16:54;97931.41;;;24.69;45.09
81319;BME280;70784;48.420;14.830;2023-07-31T10:19:39;97935.84;;;25.66;46.00
81319;BME280;70784;48.420;14.830;2023-07-31T10:22:25;97944.78;;;25.87;42.77
81319;BME280;70784;48.420;14.830;2023-07-31T10:25:10;97936.44;;;25.14;43.27
81319;BME280;70784;48.420;14.830;2023-07-31T10:27:54;97928.44;;;24.87;44.34
81319;BME280;70784;48.420;14.830;2023-07-31T10:30:39;97923.59;;;23.97;43.99
81319;BME280;70784;48.420;14.830;2023-07-31T10:33:25;97918.31;;;24.63;44.11
81319;BME280;70784;48.420;14.830;2023-07-31T10:36:17;97919.19;;;25.17;45.91
81319;BME280;70784;48.420;14.830;2023-07-31T10:39:04;97916.53;;;25.17;44.31
81319;BME280;70784;48.420;14.830;2023-07-31T10:41:48;97905.22;;;25.05;45.16
81319;BME280;70784;48.420;14.830;2023-07-31T10:44:34;97908.41;;;26.07;45.51
81319;BME280;70784;48.420;14.830;2023-07-31T10:47:18;97900.53;;;27.15;41.25
81319;BME280;70784;48.420;14.830;2023-07-31T10:50:22;97906.06;;;26.16;41.89
81319;BME280;70784;48.420;14.830;2023-07-31T10:53:22;97904.19;;;25.69;41.90
81319;BME280;70784;48.420;14.830;2023-07-31T10:56:09;97895.53;;;25.52;43.77
81319;BME280;70784;48.420;14.830;2023-07-31T10:59:00;97894.00;;;24.98;42.33
81319;BME280;70784;48.420;14.830;2023-07-31T11:01:50;97889.22;;;25.26;43.47
81319;BME280;70784;48.420;14.830;2023-07-31T11:04:34;97884.94;;;25.25;39.97
81319;BME280;70784;48.420;14.830;2023-07-31T11:07:19;97877.34;;;25.44;41.20
81319;BME280;70784;48.420;14.830;2023-07-31T11:10:04;97878.88;;;25.03;41.80
81319;BME280;70784;48.420;14.830;2023-07-31T11:12:49;97870.84;;;25.30;40.58
81319;BME280;70784;48.420;14.830;2023-07-31T11:15:33;97875.97;;;25.05;43.37
81319;BME280;70784;48.420;14.830;2023-07-31T11:18:18;97875.94;;;24.51;44.93
81319;BME280;70784;48.420;14.830;2023-07-31T11:21:02;97873.84;;;24.80;42.72
81319;BME280;70784;48.420;14.830;2023-07-31T11:23:48;97858.56;;;24.65;44.95
81319;BME280;70784;48.420;14.830;2023-07-31T11:26:32;97859.25;;;24.82;44.91
81319;BME280;70784;48.420;14.830;2023-07-31T11:29:18;97858.78;;;24.64;42.31
81319;BME280;70784;48.420;14.830;2023-07-31T11:32:03;97858.00;;;24.90;44.83
81319;BME280;70784;48.420;14.830;2023-07-31T11:34:54;97849.63;;;24.49;43.03
81319;BME280;70784;48.420;14.830;2023-07-31T11:37:43;97845.53;;;24.20;42.46
81319;BME280;70784;48.420;14.830;2023-07-31T11:40:28;97853.38;;;25.39;40.63
81319;BME280;70784;48.420;14.830;2023-07-31T11:43:13;97845.16;;;25.46;42.09
81319;BME280;70784;48.420;14.830;2023-07-31T11:46:01;97841.13;;;26.27;41.82
81319;BME280;70784;48.420;14.830;2023-07-31T11:48:59;97840.59;;;25.41;42.86
81319;BME280;70784;48.420;14.830;2023-07-31T11:51:44;97832.78;;;24.66;42.34
81319;BME280;70784;48.420;14.830;2023-07-31T11:54:28;97830.41;;;24.20;41.68
81319;BME280;70784;48.420;14.830;2023-07-31T11:57:14;97830.81;;;24.12;43.72
81319;BME280;70784;48.420;14.830;2023-07-31T11:59:58;97835.69;;;24.64;43.13
81319;BME280;70784;48.420;14.830;2023-07-31T12:02:43;97836.63;;;24.53;44.94
81319;BME280;70784;48.420;14.830;2023-07-31T12:05:29;97836.06;;;25.05;43.60
81319;BME280;70784;48.420;14.830;2023-07-31T12:08:14;97829.16;;;24.50;42.67
81319;BME280;70784;48.420;14.830;2023-07-31T12:11:04;97825.34;;;24.68;43.75
81319;BME280;70784;48.420;14.830;2023-07-31T12:13:49;97820.50;;;23.94;44.51
81319;BME280;70784;48.420;14.830;2023-07-31T12:16:33;97813.00;;;24.83;44.08
81319;BME280;70784;48.420;14.830;2023-07-31T12:19:19;97799.59;;;24.46;41.68
81319;BME280;70784;48.420;14.830;2023-07-31T12:22:14;97801.69;;;24.93;46.64
81319;BME280;70784;48.420;14.830;2023-07-31T12:24:59;97792.56;;;24.89;43.15
81319;BME280;70784;48.420;14.830;2023-07-31T12:27:45;97787.81;;;24.91;44.20
81319;BME280;70784;48.420;14.830;2023-07-31T12:30:32;97789.41;;;25.29;44.69
81319;BME280;70784;48.420;14.830;2023-07-31T12:33:18;97780.03;;;25.16;41.36
81319;BME280;70784;48.420;14.830;2023-07-31T12:36:06;97776.03;;;24.87;45.81
81319;BME280;70784;48.420;14.830;2023-07-31T12:38:51;97766.00;;;25.26;43.14
81319;BME280;70784;48.420;14.830;2023-07-31T12:41:36;97757.16;;;24.83;41.91
81319;BME280;70784;48.420;14.830;2023-07-31T12:44:21;97756.97;;;24.09;43.31
81319;BME280;70784;48.420;14.830;2023-07-31T12:47:05;97759.84;;;24.56;42.10
81319;BME280;70784;48.420;14.830;2023-07-31T12:49:50;97747.22;;;24.69;41.82
81319;BME280;70784;48.420;14.830;2023-07-31T12:52:34;97750.94;;;25.00;43.97
81319;BME280;70784;48.420;14.830;2023-07-31T12:55:19;97748.31;;;24.46;43.22
81319;BME280;70784;48.420;14.830;2023-07-31T12:58:03;97751.88;;;24.56;45.80
81319;BME280;70784;48.420;14.830;2023-07-31T13:00:48;97738.09;;;24.91;42.70
81319;BME280;70784;48.420;14.830;2023-07-31T13:03:32;97733.69;;;25.07;46.72
81319;BME280;70784;48.420;14.830;2023-07-31T13:06:16;97733.81;;;24.90;43.14
81319;BME280;70784;48.420;14.830;2023-07-31T13:09:01;97736.72;;;25.26;45.83
81319;BME280;70784;48.420;14.830;2023-07-31T13:11:45;97725.06;;;25.32;41.88
81319;BME280;70784;48.420;14.830;2023-07-31T13:14:30;97723.31;;;25.11;43.14
81319;BME280;70784;48.420;14.830;2023-07-31T13:17:14;97716.84;;;24.97;42.71
81319;BME280;70784;48.420;14.830;2023-07-31T13:19:59;97713.88;;;24.61;43.01
81319;BME280;70784;48.420;14.830;2023-07-31T13:22:44;97706.53;;;24.68;44.30
81319;BME280;70784;48.420;14.830;2023-07-31T13:25:28;97701.78;;;25.59;43.67
81319;BME280;70784;48.420;14.830;2023-07-31T13:28:13;97701.16;;;25.47;44.23
81319;BME280;70784;48.420;14.830;2023-07-31T13:30:58;97699.41;;;25.16;43.31
81319;BME280;70784;48.420;14.830;2023-07-31T13:33:43;97698.66;;;24.83;44.17
81319;BME280;70784;48.420;14.830;2023-07-31T13:36:27;97691.06;;;24.65;42.36
81319;BME280;70784;48.420;14.830;2023-07-31T13:39:12;97695.16;;;25.20;43.56
81319;BME280;70784;48.420;14.830;2023-07-31T13:41:56;97681.22;;;24.98;45.20
81319;BME280;70784;48.420;14.830;2023-07-31T13:44:41;97674.44;;;25.22;41.40
81319;BME280;70784;48.420;14.830;2023-07-31T13:47:26;97677.53;;;24.67;43.36
81319;BME280;70784;48.420;14.830;2023-07-31T13:50:11;97663.25;;;25.20;44.71
81319;BME280;70784;48.420;14.830;2023-07-31T13:52:55;97663.19;;;24.36;43.72
81319;BME280;70784;48.420;14.830;2023-07-31T13:55:41;97657.00;;;24.57;44.54
81319;BME280;70784;48.420;14.830;2023-07-31T13:58:29;97654.47;;;24.77;42.51
81319;BME280;70784;48.420;14.830;2023-07-31T14:01:14;97654.84;;;24.91;41.95
81319;BME280;70784;48.420;14.830;2023-07-31T14:03:58;97656.81;;;24.69;45.08
81319;BME280;70784;48.420;14.830;2023-07-31T14:06:43;97651.28;;;24.75;44.01
81319;BME280;70784;48.420;14.830;2023-07-31T14:09:28;97653.69;;;24.82;45.41
81319;BME280;70784;48.420;14.830;2023-07-31T14:12:12;97652.19;;;24.54;43.15
81319;BME280;70784;48.420;14.830;2023-07-31T14:14:57;97653.56;;;24.62;45.77
81319;BME280;70784;48.420;14.830;2023-07-31T14:17:41;97647.72;;;24.60;44.34
81319;BME280;70784;48.420;14.830;2023-07-31T14:20:26;97649.88;;;25.05;41.75
81319;BME280;70784;48.420;14.830;2023-07-31T14:23:10;97648.53;;;24.65;43.23
81319;BME280;70784;48.420;14.830;2023-07-31T14:26:01;97627.28;;;25.07;42.32
81319;BME280;70784;48.420;14.830;2023-07-31T14:28:45;97635.63;;;25.36;40.37
81319;BME280;70784;48.420;14.830;2023-07-31T14:31:30;97633.72;;;24.74;40.53
81319;BME280;70784;48.420;14.830;2023-07-31T14:34:14;97626.72;;;25.05;41.20
81319;BME280;70784;48.420;14.830;2023-07-31T14:37:00;97621.16;;;25.02;40.88
81319;BME280;70784;48.420;14.830;2023-07-31T14:39:45;97623.00;;;24.59;41.56
81319;BME280;70784;48.420;14.830;2023-07-31T14:42:29;97618.06;;;25.30;42.03
81319;BME280;70784;48.420;14.830;2023-07-31T14:45:14;97620.66;;;25.20;41.22
81319;BME280;70784;48.420;14.830;2023-07-31T14:47:58;97614.25;;;25.11;41.28
81319;BME280;70784;48.420;14.830;2023-07-31T14:50:42;97615.63;;;25.18;41.71
81319;BME280;70784;48.420;14.830;2023-07-31T14:53:27;97618.75;;;25.05;40.46
81319;BME280;70784;48.420;14.830;2023-07-31T14:56:11;97609.16;;;24.99;43.02
81319;BME280;70784;48.420;14.830;2023-07-31T14:58:57;97606.66;;;24.87;42.75
81319;BME280;70784;48.420;14.830;2023-07-31T15:01:41;97606.53;;;25.09;41.19
81319;BME280;70784;48.420;14.830;2023-07-31T15:04:26;97597.69;;;24.93;42.76
81319;BME280;70784;48.420;14.830;2023-07-31T15:07:10;97594.09;;;24.73;43.17
81319;BME280;70784;48.420;14.830;2023-07-31T15:09:55;97592.81;;;24.38;44.28
81319;BME280;70784;48.420;14.830;2023-07-31T15:12:40;97583.13;;;24.59;42.71
81319;BME280;70784;48.420;14.830;2023-07-31T15:15:25;97581.34;;;24.75;44.40
81319;BME280;70784;48.420;14.830;2023-07-31T15:18:09;97577.81;;;24.59;42.60
81319;BME280;70784;48.420;14.830;2023-07-31T15:20:54;97572.81;;;24.68;43.23
81319;BME280;70784;48.420;14.830;2023-07-31T15:23:38;97573.63;;;24.78;42.35
81319;BME280;70784;48.420;14.830;2023-07-31T15:26:23;97562.50;;;24.81;42.23
81319;BME280;70784;48.420;14.830;2023-07-31T15:29:07;97577.09;;;24.37;44.74
81319;BME280;70784;48.420;14.830;2023-07-31T15:31:59;97561.88;;;24.64;42.49
81319;BME280;70784;48.420;14.830;2023-07-31T15:34:44;97554.78;;;24.80;40.20
81319;BME280;70784;48.420;14.830;2023-07-31T15:37:28;97556.66;;;24.84;44.02
81319;BME280;70784;48.420;14.830;2023-07-31T15:40:13;97548.69;;;24.37;42.34
81319;BME280;70784;48.420;14.830;2023-07-31T15:42:57;97554.00;;;24.37;42.53
81319;BME280;70784;48.420;14.830;2023-07-31T15:45:42;97553.75;;;24.39;45.61
81319;BME280;70784;48.420;14.830;2023-07-31T15:48:26;97553.66;;;23.92;45.25
81319;BME280;70784;48.420;14.830;2023-07-31T15:51:11;97547.47;;;23.86;45.80
81319;BME280;70784;48.420;14.830;2023-07-31T15:53:56;97545.84;;;23.80;44.30
81319;BME280;70784;48.420;14.830;2023-07-31T15:56:40;97549.03;;;24.14;44.11
81319;BME280;70784;48.420;14.830;2023-07-31T15:59:24;97542.59;;;23.73;44.82
81319;BME280;70784;48.420;14.830;2023-07-31T16:02:09;97543.41;;;23.73;43.55
81319;BME280;70784;48.420;14.830;2023-07-31T16:04:57;97540.16;;;23.98;44.87
81319;BME280;70784;48.420;14.830;2023-07-31T16:07:41;97531.53;;;23.54;45.87
81319;BME280;70784;48.420;14.830;2023-07-31T16:10:26;97528.03;;;23.49;46.35
81319;BME280;70784;48.420;14.830;2023-07-31T16:13:10;97530.56;;;23.38;47.66
81319;BME280;70784;48.420;14.830;2023-07-31T16:15:55;97530.28;;;23.62;47.28
81319;BME280;70784;48.420;14.830;2023-07-31T16:18:40;97527.47;;;23.73;46.19